首页
METAR-TAF:

METAR-TAF

机场 :

Tallahassee Regional Airport

塔拉哈西, 佛罗里达州, 美国

纬度: 30-23-35N, 经度: 084-21-12W, 海拔: 24米

当前天气观测

该预报发布于32分钟前的17:36 UTC
风速5节,风向
温度 27°C
湿度 84%
气压 1022 hPa
能見度: 11.3公里
少量云层高于2500英尺, 积雨云.
多云层高于3300英尺
阴天层高于6500英尺
雷暴, 雨

METAR: KTLH 241736Z 19005KT 7SM TSRA FEW025CB BKN033 OVC065 27/24 A3019 RMK AO2 RAB14 OCNL LTGIC S-SW TS S-SW MOV N P0013 T02670239 $

时间: 14:08 (18:08 UTC)

预报

该预报发布于31分钟前的17:37 UTC
预报有效从24日的 18点(UTC)到 25日的 18点(UTC)
风速10节,风向
能見度: 10公里
多云层高于4000英尺, 积雨云.
阴天层高于8000英尺
小阵雨, 附近有雷暴
短暂存在
从 24日的 18点(UTC)到 24日的 21点(UTC)
能見度: 6.4公里
多云层高于3500英尺, 积雨云.
雷暴, 雨
从 24日的 2200点(UTC)
风速3节,风向
能見度: 10公里
少量云层高于2000英尺
散云层高于4000英尺
多云层高于10000英尺
从 25日的 1600点(UTC)
风速5节,风向
能見度: 10公里
多云层高于2500英尺, 积雨云.
附近有雷暴,

TAF: KTLH 241737Z 2418/2518 19010KT P6SM -SHRA VCTS BKN040CB OVC080 TEMPO 2418/2421 4SM TSRA BKN035CB FM242200 17003KT P6SM FEW020 SCT040 BKN100 FM251600 17005KT P6SM VCTS BKN025CB

超过4000个机场的气象观测和天气预报(METAR&TAF报告)。

可查询的气象台以黄色和红色小点在地图上表示。

将鼠标移到小点上方,可查看气象台名称。

然后点击查看天气观测和预报。

如需切换地图:点击带黑十字的绿色按钮放大地图;点击带横线的绿色按钮缩小地图;或者点击绿色箭头查看邻近地区的地图。


METAR-TAF: